Time;durP1;ratioP1;P1;durP2;ratioP2;P2;SDS_P1;SDS_P2;PMS_P1;PMS_P2;Temp;Humidity;BMP_temperature;BMP_pressure;BME280_temperature;BME280_humidity;BME280_pressure;Samples;Min_cycle;Max_cycle;Signal;HPM_P1;HPM_P2
2021/01/10 00:01:03;;;;;;;12.00;8.37;;;-1.40;99.90;;;;;;5094868;28;20551;-88
2021/01/10 00:03:30;;;;;;;14.40;8.70;;;-1.40;99.90;;;;;;5094982;28;20581;-88
2021/01/10 00:05:58;;;;;;;13.37;8.53;;;-1.70;99.90;;;;;;5094272;28;20452;-88
2021/01/10 00:08:25;;;;;;;10.93;7.37;;;-1.20;99.90;;;;;;5071594;28;20485;-87
2021/01/10 00:10:52;;;;;;;11.57;8.10;;;;;;;;;;5080345;28;20445;-88
2021/01/10 00:13:18;;;;;;;10.70;7.53;;;-1.20;99.90;;;;;;5095262;28;20459;-89
2021/01/10 00:15:46;;;;;;;12.57;7.87;;;;;;;;;;5094990;28;20453;-87
2021/01/10 00:18:13;;;;;;;13.03;7.77;;;-1.30;99.90;;;;;;5094814;28;20464;-88
2021/01/10 00:20:40;;;;;;;11.70;7.40;;;-1.40;99.90;;;;;;5095437;28;20441;-86
2021/01/10 00:23:06;;;;;;;14.10;7.70;;;-1.20;99.90;;;;;;5096954;28;20465;-88
2021/01/10 00:25:33;;;;;;;12.20;8.43;;;-1.20;99.90;;;;;;5096864;28;20523;-89
2021/01/10 00:28:00;;;;;;;13.17;8.40;;;-1.00;99.90;;;;;;5095549;28;20447;-88
2021/01/10 00:30:27;;;;;;;15.07;8.70;;;-1.20;99.90;;;;;;5093466;28;20443;-87
2021/01/10 00:32:54;;;;;;;12.90;7.93;;;-1.40;99.90;;;;;;5093447;28;20492;-87
2021/01/10 00:35:22;;;;;;;13.47;8.50;;;-1.20;99.90;;;;;;5092947;28;20462;-88
2021/01/10 00:37:49;;;;;;;11.50;8.27;;;-1.30;99.90;;;;;;5093978;28;20516;-87
2021/01/10 00:40:17;;;;;;;13.37;8.20;;;-1.40;99.90;;;;;;5093798;28;20453;-87
2021/01/10 00:42:46;;;;;;;14.93;8.80;;;-1.40;99.90;;;;;;5093265;28;20459;-87
2021/01/10 00:45:13;;;;;;;13.00;8.40;;;-1.30;99.90;;;;;;5093906;28;20449;-87
2021/01/10 00:47:40;;;;;;;13.07;8.17;;;-1.30;99.90;;;;;;5094599;28;20451;-88
2021/01/10 00:50:09;;;;;;;12.63;7.70;;;-1.30;99.90;;;;;;5092760;28;20476;-86
2021/01/10 00:52:35;;;;;;;14.83;8.57;;;;;;;;;;5089865;28;20480;-88
2021/01/10 00:55:02;;;;;;;15.07;9.30;;;-1.20;99.90;;;;;;5093059;28;20478;-87
2021/01/10 00:57:29;;;;;;;13.93;8.70;;;-1.30;99.90;;;;;;5093173;28;20459;-88
2021/01/10 00:59:56;;;;;;;12.30;8.23;;;-1.40;99.90;;;;;;5093204;28;20452;-87
2021/01/10 01:02:22;;;;;;;15.43;7.83;;;-1.30;99.90;;;;;;5089464;28;20442;-90
2021/01/10 01:04:48;;;;;;;14.97;8.10;;;-1.30;99.90;;;;;;5088194;28;20451;-87
2021/01/10 01:07:15;;;;;;;13.87;8.63;;;-1.30;99.90;;;;;;5092869;28;20445;-91
2021/01/10 01:09:41;;;;;;;11.30;7.10;;;-1.30;99.90;;;;;;5092918;28;20453;-87
2021/01/10 01:12:08;;;;;;;12.67;7.93;;;-1.20;99.90;;;;;;5092710;28;20489;-90
2021/01/10 01:14:35;;;;;;;12.43;8.83;;;-1.20;99.90;;;;;;5093273;28;20471;-88
2021/01/10 01:17:02;;;;;;;11.80;7.87;;;-1.40;99.90;;;;;;5093047;28;20453;-89
2021/01/10 01:19:28;;;;;;;12.07;7.43;;;-1.30;99.90;;;;;;5087645;28;20803;-87
2021/01/10 01:22:00;;;;;;;13.20;7.70;;;-0.90;99.90;;;;;;5092904;28;20447;-88
2021/01/10 01:24:26;;;;;;;12.40;8.50;;;-1.20;99.90;;;;;;5093591;28;20473;-88
2021/01/10 01:26:53;;;;;;;11.03;7.43;;;-1.30;99.90;;;;;;5095370;28;20947;-88
2021/01/10 01:29:19;;;;;;;12.00;8.13;;;-1.30;99.90;;;;;;5092984;28;20454;-89
2021/01/10 01:31:46;;;;;;;13.00;7.50;;;-1.30;99.90;;;;;;5092876;28;20487;-90
2021/01/10 01:34:13;;;;;;;11.27;8.03;;;-1.30;99.90;;;;;;5093463;28;20456;-89
2021/01/10 01:36:39;;;;;;;11.33;7.33;;;;;;;;;;5096396;28;20449;-89
2021/01/10 01:39:06;;;;;;;14.20;8.47;;;-1.40;99.90;;;;;;5096321;28;20452;-88
2021/01/10 01:41:36;;;;;;;13.00;8.27;;;-1.40;99.90;;;;;;5096653;28;20446;-88
2021/01/10 01:44:03;;;;;;;14.30;8.87;;;-1.40;99.90;;;;;;5096368;28;20444;-88
2021/01/10 01:46:31;;;;;;;11.00;7.57;;;-1.30;99.90;;;;;;5096728;28;20448;-88
2021/01/10 01:48:58;;;;;;;13.90;9.73;;;-1.40;99.90;;;;;;5097189;28;20472;-87
2021/01/10 01:51:26;;;;;;;13.27;8.47;;;-1.40;99.90;;;;;;5097774;28;20822;-89
2021/01/10 01:53:53;;;;;;;16.07;10.47;;;-1.40;99.90;;;;;;5090387;28;20450;-89
2021/01/10 01:56:19;;;;;;;16.57;9.60;;;-1.40;99.90;;;;;;5053475;28;20485;-87
2021/01/10 01:59:01;;;;;;;15.17;9.07;;;-1.30;99.90;;;;;;5053930;28;20532;-90
2021/01/10 02:01:29;;;;;;;17.10;9.50;;;-1.40;99.90;;;;;;5051392;28;20452;-87
2021/01/10 02:04:02;;;;;;;14.90;9.67;;;-1.30;99.90;;;;;;5057545;28;20461;-87
2021/01/10 02:06:38;;;;;;;15.60;10.40;;;-1.30;99.90;;;;;;5055997;28;20450;-87
2021/01/10 02:09:07;;;;;;;16.17;10.70;;;-1.50;99.90;;;;;;5049893;28;20448;-89
2021/01/10 02:11:37;;;;;;;16.00;10.63;;;-1.30;99.90;;;;;;5053388;28;20898;-89
2021/01/10 02:14:07;;;;;;;17.33;10.30;;;-1.40;99.90;;;;;;5051085;28;20489;-88
2021/01/10 02:16:36;;;;;;;16.30;10.63;;;-1.40;99.90;;;;;;5053506;28;20938;-88
2021/01/10 02:19:04;;;;;;;15.37;10.10;;;-1.50;99.90;;;;;;5052986;28;20913;-87
2021/01/10 02:21:32;;;;;;;12.53;9.03;;;-1.40;99.90;;;;;;5085374;28;20453;-89
2021/01/10 02:24:06;;;;;;;18.93;10.90;;;-1.40;99.90;;;;;;5092566;28;20843;-88
2021/01/10 02:26:33;;;;;;;13.27;9.40;;;-1.50;99.90;;;;;;5095628;28;20820;-87
2021/01/10 02:28:59;;;;;;;22.67;11.40;;;-1.50;99.90;;;;;;5095580;28;20466;-91
2021/01/10 02:31:30;;;;;;;15.87;9.20;;;-1.50;99.90;;;;;;5095101;28;20485;-87
2021/01/10 02:33:57;;;;;;;16.77;9.63;;;-1.90;99.90;;;;;;5091062;28;20943;-87
2021/01/10 02:36:30;;;;;;;14.83;9.83;;;-1.50;99.90;;;;;;5094315;28;20458;-87
2021/01/10 02:39:04;;;;;;;15.03;9.83;;;-1.50;99.90;;;;;;5095423;28;20543;-87
2021/01/10 02:41:40;;;;;;;13.63;9.20;;;-1.50;99.90;;;;;;5095178;28;20457;-87
2021/01/10 02:44:19;;;;;;;14.20;8.93;;;-1.50;99.90;;;;;;5095240;28;20449;-87
2021/01/10 02:46:49;;;;;;;14.70;9.43;;;-1.60;99.90;;;;;;5094353;28;20453;-87
2021/01/10 02:49:16;;;;;;;14.40;8.90;;;-1.70;99.90;;;;;;5091091;28;20445;-87
2021/01/10 02:51:43;;;;;;;15.47;9.80;;;-1.60;99.90;;;;;;5095144;28;20996;-87
2021/01/10 02:54:12;;;;;;;16.40;10.53;;;-1.70;99.90;;;;;;5095302;28;20445;-87
2021/01/10 02:56:42;;;;;;;13.77;9.30;;;-1.60;99.90;;;;;;5094885;28;20485;-87
2021/01/10 02:59:12;;;;;;;15.77;10.17;;;-1.70;99.90;;;;;;5095219;28;20460;-87
2021/01/10 03:01:41;;;;;;;15.77;10.33;;;-1.70;99.90;;;;;;5090379;28;20435;-89
2021/01/10 03:04:07;;;;;;;12.63;9.10;;;-1.70;99.90;;;;;;5093671;28;20470;-87
2021/01/10 03:06:34;;;;;;;15.40;9.90;;;-1.80;99.90;;;;;;5094901;28;20450;-89
2021/01/10 03:09:00;;;;;;;21.73;10.63;;;-2.00;99.90;;;;;;5090863;28;20455;-87
2021/01/10 03:11:27;;;;;;;14.77;10.60;;;-1.80;99.90;;;;;;5095117;28;20485;-87
2021/01/10 03:13:54;;;;;;;15.97;9.57;;;-1.80;99.90;;;;;;5092235;28;20461;-87
2021/01/10 03:16:21;;;;;;;14.13;9.50;;;-1.80;99.90;;;;;;5096743;28;20479;-86
2021/01/10 03:18:48;;;;;;;15.43;10.20;;;-1.80;99.90;;;;;;5102647;28;20455;-90
2021/01/10 03:21:14;;;;;;;13.23;9.37;;;-1.90;99.90;;;;;;5096285;28;20470;-90
2021/01/10 03:23:40;;;;;;;17.40;10.30;;;-1.90;99.90;;;;;;5098353;28;21179;-90
2021/01/10 03:26:07;;;;;;;16.87;9.77;;;-1.90;99.90;;;;;;5097238;28;20468;-86
2021/01/10 03:28:33;;;;;;;17.50;9.77;;;-1.90;99.90;;;;;;5096572;28;20452;-89
2021/01/10 03:31:00;;;;;;;14.20;9.60;;;-1.90;99.90;;;;;;5095766;28;20455;-89
2021/01/10 03:33:27;;;;;;;15.67;9.87;;;-1.90;99.90;;;;;;5042310;28;20849;-90
2021/01/10 03:35:53;;;;;;;12.80;8.77;;;-2.00;99.90;;;;;;5093229;28;20777;-88
2021/01/10 03:38:19;;;;;;;11.40;8.53;;;-2.00;99.90;;;;;;5090825;28;20452;-86
2021/01/10 03:40:46;;;;;;;12.87;8.17;;;-2.00;99.90;;;;;;5090662;28;20448;-87
2021/01/10 03:43:12;;;;;;;14.53;8.47;;;;;;;;;;5098362;28;20513;-89
2021/01/10 03:45:38;;;;;;;14.17;8.83;;;-2.00;99.90;;;;;;5094114;28;20452;-89
2021/01/10 03:48:06;;;;;;;14.13;9.30;;;-1.90;99.90;;;;;;5094233;28;20453;-88
2021/01/10 03:50:32;;;;;;;14.20;8.90;;;-2.00;99.90;;;;;;5093201;28;20939;-88
2021/01/10 03:53:00;;;;;;;14.90;9.40;;;-2.10;99.90;;;;;;5094294;28;21009;-89
2021/01/10 03:55:26;;;;;;;12.87;8.53;;;-1.90;99.90;;;;;;5093915;28;20894;-88
2021/01/10 03:57:52;;;;;;;14.77;9.33;;;-2.70;99.90;;;;;;5092930;28;20448;-89
2021/01/10 04:00:19;;;;;;;15.00;9.10;;;-2.10;99.90;;;;;;5093792;28;20958;-88
2021/01/10 04:02:45;;;;;;;14.07;8.53;;;-2.00;99.90;;;;;;5094076;28;20448;-88
2021/01/10 04:05:13;;;;;;;12.53;7.90;;;-2.00;99.90;;;;;;5093224;28;20444;-86
2021/01/10 04:07:39;;;;;;;16.27;9.80;;;-1.90;99.90;;;;;;5090849;28;20451;-87
2021/01/10 04:10:06;;;;;;;17.87;8.37;;;-1.90;99.90;;;;;;5093801;28;20923;-91
2021/01/10 04:12:33;;;;;;;13.20;8.13;;;-1.70;99.90;;;;;;5090719;28;20494;-88
2021/01/10 04:14:59;;;;;;;13.10;8.37;;;-1.20;99.90;;;;;;5093745;28;21058;-88
2021/01/10 04:17:26;;;;;;;16.30;9.40;;;-1.80;99.90;;;;;;5094357;28;20448;-89
2021/01/10 04:19:53;;;;;;;15.60;9.10;;;-1.80;99.90;;;;;;5093034;28;20820;-88
2021/01/10 04:22:20;;;;;;;14.27;8.87;;;-1.90;99.90;;;;;;5089466;28;20950;-88
2021/01/10 04:24:47;;;;;;;17.20;9.00;;;-1.80;99.90;;;;;;5093520;28;20959;-88
2021/01/10 04:27:13;;;;;;;15.90;9.10;;;-1.80;99.90;;;;;;5089725;28;20495;-89
2021/01/10 04:29:39;;;;;;;11.77;8.10;;;-1.90;99.90;;;;;;5093706;28;20855;-89
2021/01/10 04:32:06;;;;;;;12.40;7.97;;;-1.00;99.90;;;;;;5093879;28;20716;-88
2021/01/10 04:34:32;;;;;;;11.60;8.17;;;-2.10;99.90;;;;;;5092876;28;20458;-88
2021/01/10 04:36:58;;;;;;;13.97;8.20;;;-1.90;99.90;;;;;;5090712;28;20445;-88
2021/01/10 04:39:25;;;;;;;13.60;7.97;;;-1.90;99.90;;;;;;5093895;28;20450;-88
2021/01/10 04:41:53;;;;;;;16.87;9.50;;;-1.80;99.90;;;;;;5093674;28;20454;-89
2021/01/10 04:44:23;;;;;;;13.57;9.07;;;-1.90;99.90;;;;;;5092213;28;20442;-86
2021/01/10 04:46:50;;;;;;;12.20;8.60;;;-1.90;99.90;;;;;;5096119;28;20578;-88
2021/01/10 04:49:17;;;;;;;13.13;8.87;;;-1.80;99.90;;;;;;5089338;28;20565;-88
2021/01/10 04:51:45;;;;;;;17.87;9.83;;;-1.80;99.90;;;;;;5093414;28;20992;-88
2021/01/10 04:54:13;;;;;;;13.77;8.87;;;-1.80;99.90;;;;;;5093395;28;20994;-87
2021/01/10 04:56:42;;;;;;;13.63;8.43;;;-1.90;99.90;;;;;;5093235;28;20568;-88
2021/01/10 04:59:08;;;;;;;13.30;8.70;;;-1.90;99.90;;;;;;5087649;28;20456;-89
2021/01/10 05:01:37;;;;;;;8.60;6.50;;;-1.80;99.90;;;;;;5093554;28;20767;-89
2021/01/10 05:04:04;;;;;;;11.70;7.07;;;-1.90;99.90;;;;;;5093398;28;20445;-86
2021/01/10 05:06:34;;;;;;;9.97;6.70;;;-1.60;99.90;;;;;;5093016;28;20492;-90
2021/01/10 05:09:01;;;;;;;10.13;6.40;;;-1.60;99.90;;;;;;5095261;28;20471;-89
2021/01/10 05:11:28;;;;;;;9.77;6.27;;;-1.60;99.90;;;;;;5097287;28;20461;-88
2021/01/10 05:13:55;;;;;;;9.50;6.33;;;-1.50;99.90;;;;;;5097440;28;20517;-88
2021/01/10 05:16:22;;;;;;;10.87;7.03;;;-1.30;99.90;;;;;;5096980;28;20452;-89
2021/01/10 05:18:50;;;;;;;9.47;6.67;;;-1.40;99.90;;;;;;5097130;28;20457;-88
2021/01/10 05:21:19;;;;;;;10.77;6.90;;;-1.40;99.90;;;;;;5093022;28;20506;-88
2021/01/10 05:23:45;;;;;;;7.80;5.57;;;;;;;;;;5088973;28;20481;-86
2021/01/10 05:26:12;;;;;;;7.40;5.57;;;;;;;;;;5097505;28;20967;-88
2021/01/10 05:28:38;;;;;;;8.87;6.20;;;-1.50;99.90;;;;;;5097970;28;20450;-87
2021/01/10 05:31:10;;;;;;;8.33;5.90;;;-1.40;99.90;;;;;;5108613;28;20929;-86
2021/01/10 05:33:49;;;;;;;7.27;5.50;;;-1.30;99.90;;;;;;5094287;28;20448;-89
2021/01/10 05:36:28;;;;;;;8.13;5.63;;;-1.30;99.90;;;;;;5094996;28;20449;-90
2021/01/10 05:38:55;;;;;;;9.97;6.33;;;-1.20;99.90;;;;;;5093117;28;20437;-89
2021/01/10 05:41:23;;;;;;;12.77;6.73;;;-1.40;99.90;;;;;;5093531;28;20452;-89
2021/01/10 05:43:57;;;;;;;9.20;6.10;;;-1.20;99.90;;;;;;5096161;28;20479;-90
2021/01/10 05:46:25;;;;;;;9.57;6.40;;;-1.10;99.90;;;;;;5085731;28;20518;-88
2021/01/10 05:48:51;;;;;;;10.13;6.17;;;-1.20;99.90;;;;;;5096116;28;20443;-89
2021/01/10 05:51:19;;;;;;;7.93;5.57;;;-1.20;99.90;;;;;;5087597;28;20483;-88
2021/01/10 05:53:45;;;;;;;5.83;4.87;;;-1.20;99.90;;;;;;5095817;28;20433;-90
2021/01/10 05:56:11;;;;;;;10.57;6.10;;;-1.20;99.90;;;;;;5096663;28;20464;-90
2021/01/10 05:58:39;;;;;;;11.40;7.27;;;-1.10;99.90;;;;;;5098455;28;20477;-88
2021/01/10 06:01:12;;;;;;;10.90;7.67;;;-1.10;99.90;;;;;;5095706;28;20446;-89
2021/01/10 06:03:40;;;;;;;14.63;8.27;;;-1.20;99.90;;;;;;5095657;28;20448;-89
2021/01/10 06:06:07;;;;;;;12.00;7.90;;;-1.20;99.90;;;;;;5094655;28;20445;-90
2021/01/10 06:08:35;;;;;;;13.23;7.53;;;-1.30;99.90;;;;;;5095681;28;20536;-89
2021/01/10 06:11:21;;;;;;;15.90;8.13;;;-1.30;99.90;;;;;;5093089;28;20792;-88
2021/01/10 06:13:49;;;;;;;9.60;7.23;;;-1.30;99.90;;;;;;5096044;28;20460;-86
2021/01/10 06:16:16;;;;;;;12.83;8.00;;;-1.30;99.90;;;;;;5095929;28;20955;-87
2021/01/10 06:18:46;;;;;;;11.57;7.90;;;-1.30;99.90;;;;;;5095481;28;20438;-88
2021/01/10 06:21:18;;;;;;;15.50;8.83;;;-1.40;99.90;;;;;;5083410;28;20437;-89
2021/01/10 06:23:47;;;;;;;12.13;8.37;;;-1.60;99.90;;;;;;5093114;28;20458;-87
2021/01/10 06:26:16;;;;;;;13.43;8.03;;;-1.40;99.90;;;;;;5095373;28;20447;-89
2021/01/10 06:28:49;;;;;;;12.13;8.17;;;-1.40;99.90;;;;;;5095675;28;20495;-87
2021/01/10 06:31:22;;;;;;;15.70;8.70;;;-1.50;99.90;;;;;;5095297;28;20940;-89
2021/01/10 06:34:02;;;;;;;12.50;8.13;;;-1.50;99.90;;;;;;5095244;28;20975;-88
2021/01/10 06:36:30;;;;;;;10.20;7.77;;;-1.50;99.90;;;;;;5084877;28;20487;-87
2021/01/10 06:39:08;;;;;;;14.23;8.63;;;-1.60;99.90;;;;;;5095147;28;20452;-89
2021/01/10 06:42:04;;;;;;;11.20;7.43;;;-1.50;99.90;;;;;;5095123;28;20437;-86
2021/01/10 06:44:34;;;;;;;10.50;7.20;;;-1.50;99.90;;;;;;5093863;28;20510;-90
2021/01/10 06:47:00;;;;;;;13.37;8.70;;;-1.50;99.90;;;;;;5095003;28;20439;-89
2021/01/10 06:49:27;;;;;;;11.43;7.40;;;-1.50;99.90;;;;;;5093808;28;20441;-89
2021/01/10 06:51:56;;;;;;;14.00;8.30;;;-1.30;99.90;;;;;;5094627;28;20486;-88
2021/01/10 06:54:23;;;;;;;8.37;6.17;;;-1.40;99.90;;;;;;5085241;28;20881;-89
2021/01/10 06:56:51;;;;;;;9.53;6.77;;;-1.30;99.90;;;;;;5094658;28;20441;-86
2021/01/10 06:59:18;;;;;;;7.97;5.37;;;-0.80;99.90;;;;;;5094726;28;20458;-89
2021/01/10 07:02:01;;;;;;;10.90;6.70;;;-1.30;99.90;;;;;;5094453;28;20437;-86
2021/01/10 07:05:10;;;;;;;8.40;6.10;;;-1.30;99.90;;;;;;5085426;28;20796;-87
2021/01/10 07:07:42;;;;;;;8.40;5.60;;;-1.30;99.90;;;;;;5087647;28;20464;-86
2021/01/10 07:10:23;;;;;;;9.50;5.07;;;-1.30;99.90;;;;;;5094277;28;20441;-88
2021/01/10 07:12:50;;;;;;;9.20;4.83;;;-1.00;99.90;;;;;;5089777;28;20524;-89
2021/01/10 07:15:27;;;;;;;6.60;4.90;;;-1.20;99.90;;;;;;5093782;28;20441;-88
2021/01/10 07:18:02;;;;;;;9.00;5.50;;;-1.20;99.90;;;;;;5094198;28;20440;-88
2021/01/10 07:20:32;;;;;;;7.50;4.87;;;-1.20;99.90;;;;;;5093061;28;20493;-89
2021/01/10 07:23:33;;;;;;;7.20;4.73;;;-1.20;99.90;;;;;;5094422;28;20467;-88
2021/01/10 07:26:01;;;;;;;9.60;6.17;;;-1.10;99.90;;;;;;5090819;28;20438;-88
2021/01/10 07:28:40;;;;;;;9.63;6.33;;;-1.10;99.90;;;;;;5094747;28;20444;-87
2021/01/10 07:31:15;;;;;;;13.40;7.87;;;-1.20;99.90;;;;;;5092425;28;20449;-89
2021/01/10 07:33:42;;;;;;;10.80;7.53;;;-1.30;99.90;;;;;;5094495;28;20493;-88
2021/01/10 07:36:09;;;;;;;12.53;7.17;;;-1.40;99.90;;;;;;5093505;28;20454;-89
2021/01/10 07:38:38;;;;;;;10.87;6.80;;;-1.20;99.90;;;;;;5091278;28;20452;-86
2021/01/10 07:41:23;;;;;;;11.40;7.43;;;-1.20;99.90;;;;;;5095798;28;20505;-87
2021/01/10 07:43:51;;;;;;;10.63;7.83;;;-1.20;99.90;;;;;;5091409;28;20453;-88
2021/01/10 07:47:01;;;;;;;15.53;9.63;;;-1.20;99.90;;;;;;5094045;28;20954;-88
2021/01/10 07:49:52;;;;;;;14.37;8.80;;;-1.20;99.90;;;;;;5078128;28;20542;-89
2021/01/10 07:52:33;;;;;;;15.70;9.13;;;-1.10;99.90;;;;;;5093825;28;20566;-90
2021/01/10 07:55:01;;;;;;;12.83;9.77;;;-1.30;99.90;;;;;;5093188;28;20541;-87
2021/01/10 07:57:34;;;;;;;11.57;8.53;;;-1.20;99.90;;;;;;5093429;28;20453;-87
2021/01/10 08:00:13;;;;;;;13.40;8.57;;;-1.20;99.90;;;;;;5094081;28;20528;-90
2021/01/10 08:03:01;;;;;;;14.67;9.97;;;-1.10;99.90;;;;;;5090391;28;20453;-89
2021/01/10 08:05:30;;;;;;;14.23;8.77;;;-1.30;99.90;;;;;;5081671;28;20455;-88
2021/01/10 08:08:03;;;;;;;12.80;8.60;;;-1.20;99.90;;;;;;5094026;28;20937;-88
2021/01/10 08:10:47;;;;;;;10.80;7.63;;;-1.20;99.90;;;;;;5094066;28;20935;-89
2021/01/10 08:13:35;;;;;;;13.07;8.73;;;-1.10;99.90;;;;;;5096800;28;20495;-86
2021/01/10 08:16:04;;;;;;;14.00;9.20;;;-1.00;99.90;;;;;;5092085;28;20449;-85
2021/01/10 08:18:36;;;;;;;14.87;9.40;;;-0.90;99.90;;;;;;5087174;28;20440;-92
2021/01/10 08:21:04;;;;;;;11.70;7.57;;;-1.00;99.90;;;;;;5085268;28;20445;-90
2021/01/10 08:23:31;;;;;;;12.90;8.97;;;-0.90;99.90;;;;;;5093741;28;20960;-87
2021/01/10 08:26:07;;;;;;;12.83;9.40;;;-1.00;99.90;;;;;;5093415;28;20441;-88
2021/01/10 08:28:35;;;;;;;16.30;11.57;;;-0.90;99.90;;;;;;5084045;28;20936;-87
2021/01/10 08:31:04;;;;;;;12.63;9.60;;;-0.80;99.90;;;;;;5092888;28;20437;-88
2021/01/10 08:33:30;;;;;;;12.87;8.30;;;-0.90;99.90;;;;;;5085716;28;20481;-92
2021/01/10 08:36:09;;;;;;;15.90;10.40;;;-1.00;99.90;;;;;;5089575;28;20451;-88
2021/01/10 08:38:36;;;;;;;14.50;10.33;;;-0.90;99.90;;;;;;5090075;28;20453;-90
2021/01/10 08:41:02;;;;;;;12.63;8.90;;;-0.80;99.90;;;;;;5088821;28;20445;-90
2021/01/10 08:43:29;;;;;;;18.10;11.53;;;-0.70;99.90;;;;;;5084397;28;20518;-92
2021/01/10 08:45:56;;;;;;;12.60;9.00;;;;;;;;;;5092078;28;20434;-89
2021/01/10 08:48:22;;;;;;;15.27;9.50;;;;;;;;;;5100163;28;20452;-90
2021/01/10 08:50:48;;;;;;;11.67;7.43;;;-0.40;99.90;;;;;;5100008;28;20811;-91
2021/01/10 08:53:15;;;;;;;12.00;8.30;;;-0.50;99.90;;;;;;5093890;28;21049;-90
2021/01/10 08:55:42;;;;;;;13.80;10.60;;;-0.30;99.90;;;;;;5099502;28;20481;-92
2021/01/10 08:58:10;;;;;;;17.90;14.00;;;-0.40;99.90;;;;;;5099478;28;20458;-95
2021/01/10 09:00:41;;;;;;;13.17;9.77;;;-0.40;99.90;;;;;;5098620;28;20452;-91
2021/01/10 09:03:18;;;;;;;12.60;8.80;;;-0.40;99.90;;;;;;5099224;28;20509;-93
2021/01/10 09:05:45;;;;;;;12.17;8.77;;;-0.20;99.90;;;;;;5097646;28;20804;-88
2021/01/10 09:08:21;;;;;;;15.23;9.80;;;-0.10;99.90;;;;;;5098424;28;20583;-91
2021/01/10 09:10:56;;;;;;;11.90;8.77;;;-0.10;99.90;;;;;;5094348;28;20461;-91
2021/01/10 09:13:25;;;;;;;12.60;8.80;;;0.00;99.90;;;;;;5094227;28;20499;-90
2021/01/10 09:15:54;;;;;;;13.57;8.90;;;0.10;99.90;;;;;;5093906;28;20437;-91
2021/01/10 09:18:23;;;;;;;13.37;7.77;;;0.10;99.90;;;;;;5097721;28;20449;-88
2021/01/10 09:20:52;;;;;;;12.40;8.27;;;1.00;99.90;;;;;;5097331;28;20567;-90
2021/01/10 09:23:20;;;;;;;14.50;9.53;;;0.40;99.90;;;;;;5097561;28;20424;-90
2021/01/10 09:25:46;;;;;;;11.90;9.20;;;0.50;99.90;;;;;;5090353;28;20442;-89
2021/01/10 09:28:15;;;;;;;13.80;9.57;;;0.70;99.90;;;;;;5097231;28;20461;-91
2021/01/10 09:30:43;;;;;;;11.17;7.83;;;0.90;99.90;;;;;;5093589;28;20454;-90
2021/01/10 09:33:12;;;;;;;12.07;8.13;;;1.00;99.90;;;;;;5096823;28;20500;-89
2021/01/10 09:35:43;;;;;;;8.17;5.80;;;0.50;99.90;;;;;;5096482;28;20445;-87
2021/01/10 09:38:10;;;;;;;12.73;9.43;;;1.10;99.90;;;;;;5097825;28;20458;-90
2021/01/10 09:40:37;;;;;;;8.60;6.40;;;;;;;;;;5096936;28;20446;-90
2021/01/10 09:43:04;;;;;;;7.27;5.67;;;0.80;99.90;;;;;;5097023;28;20453;-90
2021/01/10 09:45:36;;;;;;;5.30;4.20;;;1.00;99.90;;;;;;5097219;28;20441;-92
2021/01/10 09:48:14;;;;;;;6.53;4.27;;;0.90;99.90;;;;;;5097350;28;20444;-89
2021/01/10 09:50:41;;;;;;;6.37;4.40;;;1.10;99.90;;;;;;5096786;28;20463;-89
2021/01/10 09:53:08;;;;;;;5.20;3.63;;;;;;;;;;5093809;28;20538;-90
2021/01/10 09:55:45;;;;;;;4.83;3.23;;;0.90;99.90;;;;;;5094365;28;20475;-93
2021/01/10 09:58:15;;;;;;;6.77;4.77;;;1.50;99.90;;;;;;5097150;28;20451;-89
2021/01/10 10:00:55;;;;;;;6.20;4.80;;;1.60;99.90;;;;;;5097073;28;20463;-90
2021/01/10 10:03:25;;;;;;;4.40;3.60;;;1.90;99.90;;;;;;5096587;28;20445;-90
2021/01/10 10:05:59;;;;;;;5.10;3.90;;;2.20;99.90;;;;;;5095754;28;20444;-90
2021/01/10 10:08:25;;;;;;;6.30;5.13;;;;;;;;;;5092419;28;20460;-91
2021/01/10 10:10:52;;;;;;;4.30;3.70;;;;;;;;;;5096236;28;20453;-89
2021/01/10 10:13:25;;;;;;;5.50;4.57;;;3.60;99.90;;;;;;5096433;28;20499;-90
2021/01/10 10:15:54;;;;;;;6.13;4.77;;;3.60;99.90;;;;;;5096594;28;20445;-89
2021/01/10 10:18:22;;;;;;;5.20;4.33;;;4.50;99.90;;;;;;5096224;28;20944;-90
2021/01/10 10:20:48;;;;;;;6.20;4.17;;;4.80;99.90;;;;;;5092425;28;20492;-92
2021/01/10 10:23:16;;;;;;;5.20;4.07;;;4.60;99.90;;;;;;5093479;28;20451;-91
2021/01/10 10:25:43;;;;;;;5.90;4.83;;;;;;;;;;5089481;28;20517;-90
2021/01/10 10:28:09;;;;;;;5.87;4.27;;;;;;;;;;5099694;28;20455;-89
2021/01/10 10:30:36;;;;;;;3.00;2.70;;;4.20;99.90;;;;;;5097720;28;20962;-90
2021/01/10 10:33:04;;;;;;;6.53;5.10;;;3.30;99.90;;;;;;5096442;28;20499;-89
2021/01/10 10:35:31;;;;;;;4.90;4.40;;;;;;;;;;5105977;28;20441;-90
2021/01/10 10:37:58;;;;;;;5.87;4.47;;;;;;;;;;5098413;28;20440;-91
2021/01/10 10:40:25;;;;;;;4.43;3.53;;;;;;;;;;5093580;28;20489;-89
2021/01/10 10:42:52;;;;;;;4.63;3.97;;;;;;;;;;5096342;28;20453;-91
2021/01/10 10:45:18;;;;;;;3.70;2.80;;;;;;;;;;5096095;28;20454;-90
2021/01/10 10:47:45;;;;;;;3.83;3.40;;;;;;;;;;5096699;28;20909;-90
2021/01/10 10:50:12;;;;;;;3.53;2.90;;;;;;;;;;5095639;28;20461;-89
2021/01/10 10:52:39;;;;;;;3.70;2.97;;;;;;;;;;5095778;28;20489;-90
2021/01/10 10:55:06;;;;;;;4.10;3.47;;;4.60;99.90;;;;;;5092410;28;20495;-89
2021/01/10 10:57:35;;;;;;;4.53;3.80;;;4.90;99.90;;;;;;5092286;28;20834;-90
2021/01/10 11:00:02;;;;;;;5.67;4.37;;;4.80;99.90;;;;;;5095337;28;20467;-91
2021/01/10 11:02:29;;;;;;;6.37;4.63;;;;;;;;;;5095166;28;20924;-90
2021/01/10 11:04:55;;;;;;;6.97;5.53;;;;;;;;;;5094354;28;20498;-90
2021/01/10 11:07:22;;;;;;;7.07;5.90;;;;;;;;;;5094614;28;20449;-90
2021/01/10 11:09:49;;;;;;;7.77;6.10;;;;;;;;;;5095287;28;20461;-90
2021/01/10 11:12:15;;;;;;;7.10;5.50;;;;;;;;;;5095142;28;20475;-90
2021/01/10 11:14:43;;;;;;;6.93;6.20;;;4.00;99.90;;;;;;5095103;28;20451;-90
2021/01/10 11:17:10;;;;;;;8.27;5.70;;;;;;;;;;5088228;28;20440;-89
2021/01/10 11:19:36;;;;;;;8.00;6.03;;;;;;;;;;5094168;28;20453;-90
2021/01/10 11:22:04;;;;;;;7.70;6.57;;;3.30;99.90;;;;;;5094889;28;20832;-90
2021/01/10 11:24:30;;;;;;;9.37;7.17;;;;;;;;;;5090884;28;20455;-90
2021/01/10 11:26:57;;;;;;;7.17;6.20;;;;;;;;;;5089031;28;20457;-89
2021/01/10 11:29:24;;;;;;;8.40;6.53;;;;;;;;;;5094838;28;21011;-91
2021/01/10 11:31:51;;;;;;;9.20;7.30;;;;;;;;;;5094829;28;20447;-90
2021/01/10 11:34:18;;;;;;;8.33;6.67;;;;;;;;;;5094964;28;20452;-89
2021/01/10 11:36:46;;;;;;;9.70;7.90;;;3.00;99.90;;;;;;5092489;28;20475;-90
2021/01/10 11:39:13;;;;;;;10.67;7.67;;;2.60;99.90;;;;;;5090537;28;20441;-91
2021/01/10 11:41:43;;;;;;;10.23;7.97;;;2.60;99.90;;;;;;5094551;28;20452;-89
2021/01/10 11:44:09;;;;;;;12.63;9.10;;;;;;;;;;5094453;28;20524;-89
2021/01/10 11:46:36;;;;;;;11.60;8.10;;;;;;;;;;5091640;28;20456;-89
2021/01/10 11:49:03;;;;;;;11.33;7.90;;;0.50;99.90;;;;;;5094810;28;20448;-89
2021/01/10 11:51:30;;;;;;;9.80;6.30;;;;;;;;;;5091046;28;20448;-89
2021/01/10 11:53:57;;;;;;;10.70;6.37;;;;;;;;;;5094747;28;20555;-90
2021/01/10 11:56:23;;;;;;;10.63;7.30;;;;;;;;;;5094573;28;20480;-90
2021/01/10 11:58:50;;;;;;;7.53;5.30;;;;;;;;;;5091387;28;20464;-90
2021/01/10 12:01:17;;;;;;;12.20;7.70;;;;;;;;;;5091540;28;20448;-88
2021/01/10 12:03:44;;;;;;;8.47;6.83;;;;;;;;;;5102579;28;20460;-89
2021/01/10 12:06:18;;;;;;;9.70;6.80;;;1.80;99.90;;;;;;5091300;28;20464;-88
2021/01/10 12:08:44;;;;;;;10.83;7.20;;;;;;;;;;5094361;28;20447;-89
2021/01/10 12:11:13;;;;;;;12.43;7.73;;;1.60;99.90;;;;;;5092751;28;20463;-90
2021/01/10 12:13:40;;;;;;;9.27;6.80;;;;;;;;;;5096391;28;20855;-89
2021/01/10 12:16:07;;;;;;;8.70;6.00;;;;;;;;;;5092751;28;20518;-90
2021/01/10 12:18:33;;;;;;;9.50;6.40;;;;;;;;;;5092533;28;20468;-89
2021/01/10 12:21:00;;;;;;;5.97;5.37;;;;;;;;;;5095467;28;20520;-89
2021/01/10 12:23:27;;;;;;;10.20;7.03;;;1.70;99.90;;;;;;5095431;28;20534;-89
2021/01/10 12:25:53;;;;;;;9.90;6.57;;;;;;;;;;5095406;28;20461;-89
2021/01/10 12:28:20;;;;;;;10.40;6.90;;;;;;;;;;5095158;28;20539;-89
2021/01/10 12:30:47;;;;;;;8.83;6.70;;;;;;;;;;5095265;28;20471;-89
2021/01/10 12:33:13;;;;;;;9.23;5.93;;;;;;;;;;5092077;28;20601;-89
2021/01/10 12:35:40;;;;;;;8.63;5.73;;;;;;;;;;5094558;28;20805;-89
2021/01/10 12:38:06;;;;;;;7.60;6.17;;;;;;;;;;5095327;28;20456;-89
2021/01/10 12:40:34;;;;;;;8.00;6.40;;;1.70;99.90;;;;;;5094690;28;20452;-89
2021/01/10 12:43:00;;;;;;;5.97;5.33;;;;;;;;;;5093767;28;20481;-89
2021/01/10 12:45:27;;;;;;;7.50;5.93;;;;;;;;;;5099231;28;20501;-89
2021/01/10 12:47:54;;;;;;;8.63;5.80;;;;;;;;;;5092705;28;20855;-88
2021/01/10 12:50:20;;;;;;;7.50;5.60;;;1.50;99.90;;;;;;5092575;28;20459;-89
2021/01/10 12:52:47;;;;;;;7.03;5.10;;;;;;;;;;5088999;28;20521;-88
2021/01/10 12:55:14;;;;;;;17.33;11.27;;;;;;;;;;5084846;28;20476;-89
2021/01/10 12:57:41;;;;;;;9.67;6.23;;;2.00;99.90;;;;;;5073828;28;20903;-89
2021/01/10 13:00:10;;;;;;;9.00;7.27;;;2.00;99.90;;;;;;5068027;28;20433;-90
2021/01/10 13:02:37;;;;;;;9.20;6.57;;;;;;;;;;5036019;28;20460;-89
2021/01/10 13:05:05;;;;;;;18.73;16.83;;;2.30;99.90;;;;;;5073620;28;20939;-90
2021/01/10 13:07:31;;;;;;;9.47;8.03;;;1.80;99.90;;;;;;5073799;28;20455;-90
2021/01/10 13:09:58;;;;;;;8.23;6.40;;;;;;;;;;5068675;28;20607;-89